sensor_id;sensor_type;location;lat;lon;timestamp;pressure;altitude;pressure_sealevel;temperature;humidity
64628;BME280;59036;50.960;0.314;2022-12-18T00:01:44;100574.24;;;-3.89;100.00
64628;BME280;59036;50.960;0.314;2022-12-18T00:04:18;100567.96;;;-3.47;100.00
64628;BME280;59036;50.960;0.314;2022-12-18T00:06:47;100570.50;;;-3.73;100.00
64628;BME280;59036;50.960;0.314;2022-12-18T00:09:14;100572.69;;;-3.92;100.00
64628;BME280;59036;50.960;0.314;2022-12-18T00:11:41;100574.55;;;-3.86;100.00
64628;BME280;59036;50.960;0.314;2022-12-18T00:14:11;100570.87;;;-3.70;100.00
64628;BME280;59036;50.960;0.314;2022-12-18T00:16:39;100563.52;;;-3.73;100.00
64628;BME280;59036;50.960;0.314;2022-12-18T00:19:06;100550.49;;;-3.56;100.00
64628;BME280;59036;50.960;0.314;2022-12-18T00:21:34;100547.38;;;-3.28;100.00
64628;BME280;59036;50.960;0.314;2022-12-18T00:24:01;100545.63;;;-3.35;100.00
64628;BME280;59036;50.960;0.314;2022-12-18T00:26:30;100546.36;;;-3.63;100.00
64628;BME280;59036;50.960;0.314;2022-12-18T00:28:59;100546.07;;;-3.74;100.00
64628;BME280;59036;50.960;0.314;2022-12-18T00:31:27;100541.72;;;-3.57;100.00
64628;BME280;59036;50.960;0.314;2022-12-18T00:33:55;100549.88;;;-3.59;100.00
64628;BME280;59036;50.960;0.314;2022-12-18T00:36:24;100552.48;;;-3.64;100.00
64628;BME280;59036;50.960;0.314;2022-12-18T00:38:53;100554.20;;;-3.58;100.00
64628;BME280;59036;50.960;0.314;2022-12-18T00:41:21;100552.37;;;-3.48;100.00
64628;BME280;59036;50.960;0.314;2022-12-18T00:43:48;100552.56;;;-3.55;100.00
64628;BME280;59036;50.960;0.314;2022-12-18T00:46:15;100549.96;;;-3.26;100.00
64628;BME280;59036;50.960;0.314;2022-12-18T00:48:42;100544.20;;;-3.38;100.00
64628;BME280;59036;50.960;0.314;2022-12-18T00:51:10;100542.12;;;-3.38;100.00
64628;BME280;59036;50.960;0.314;2022-12-18T00:53:37;100541.34;;;-3.29;100.00
64628;BME280;59036;50.960;0.314;2022-12-18T00:56:05;100538.03;;;-3.40;100.00
64628;BME280;59036;50.960;0.314;2022-12-18T00:58:37;100540.96;;;-3.76;100.00
64628;BME280;59036;50.960;0.314;2022-12-18T01:01:04;100537.12;;;-3.41;100.00
64628;BME280;59036;50.960;0.314;2022-12-18T01:03:31;100534.68;;;-3.15;100.00
64628;BME280;59036;50.960;0.314;2022-12-18T01:05:58;100534.08;;;-3.31;100.00
64628;BME280;59036;50.960;0.314;2022-12-18T01:08:26;100533.05;;;-3.54;100.00
64628;BME280;59036;50.960;0.314;2022-12-18T01:10:53;100531.03;;;-3.53;100.00
64628;BME280;59036;50.960;0.314;2022-12-18T01:13:20;100529.49;;;-3.91;100.00
64628;BME280;59036;50.960;0.314;2022-12-18T01:15:48;100521.42;;;-3.66;100.00
64628;BME280;59036;50.960;0.314;2022-12-18T01:18:15;100515.34;;;-3.51;100.00
64628;BME280;59036;50.960;0.314;2022-12-18T01:20:42;100512.20;;;-3.58;100.00
64628;BME280;59036;50.960;0.314;2022-12-18T01:23:09;100509.57;;;-3.80;100.00
64628;BME280;59036;50.960;0.314;2022-12-18T01:25:36;100514.82;;;-3.92;100.00
64628;BME280;59036;50.960;0.314;2022-12-18T01:28:05;100508.69;;;-3.70;100.00
64628;BME280;59036;50.960;0.314;2022-12-18T01:30:32;100504.65;;;-3.71;100.00
64628;BME280;59036;50.960;0.314;2022-12-18T01:32:59;100494.91;;;-3.73;100.00
64628;BME280;59036;50.960;0.314;2022-12-18T01:35:26;100491.59;;;-3.77;100.00
64628;BME280;59036;50.960;0.314;2022-12-18T01:37:54;100482.92;;;-3.73;100.00
64628;BME280;59036;50.960;0.314;2022-12-18T01:40:21;100477.43;;;-3.36;100.00
64628;BME280;59036;50.960;0.314;2022-12-18T01:42:50;100473.91;;;-3.91;100.00
64628;BME280;59036;50.960;0.314;2022-12-18T01:45:24;100475.86;;;-3.38;100.00
64628;BME280;59036;50.960;0.314;2022-12-18T01:47:54;100473.92;;;-3.76;100.00
64628;BME280;59036;50.960;0.314;2022-12-18T01:50:24;100471.06;;;-3.47;100.00
64628;BME280;59036;50.960;0.314;2022-12-18T01:53:00;100474.36;;;-3.51;100.00
64628;BME280;59036;50.960;0.314;2022-12-18T01:55:32;100471.50;;;-3.50;100.00
64628;BME280;59036;50.960;0.314;2022-12-18T01:58:02;100462.32;;;-3.09;100.00
64628;BME280;59036;50.960;0.314;2022-12-18T02:00:30;100462.46;;;-3.27;100.00
64628;BME280;59036;50.960;0.314;2022-12-18T02:02:57;100460.96;;;-3.39;100.00
64628;BME280;59036;50.960;0.314;2022-12-18T02:05:34;100467.09;;;-3.38;100.00
64628;BME280;59036;50.960;0.314;2022-12-18T02:08:10;100472.94;;;-3.52;100.00
64628;BME280;59036;50.960;0.314;2022-12-18T02:10:45;100477.42;;;-3.40;100.00
64628;BME280;59036;50.960;0.314;2022-12-18T02:13:18;100483.17;;;-3.12;100.00
64628;BME280;59036;50.960;0.314;2022-12-18T02:15:54;100481.65;;;-2.97;100.00
64628;BME280;59036;50.960;0.314;2022-12-18T02:18:30;100482.09;;;-3.22;100.00
64628;BME280;59036;50.960;0.314;2022-12-18T02:21:03;100478.51;;;-3.26;100.00
64628;BME280;59036;50.960;0.314;2022-12-18T02:23:45;100490.97;;;-3.72;100.00
64628;BME280;59036;50.960;0.314;2022-12-18T02:26:18;100490.23;;;-3.31;100.00
64628;BME280;59036;50.960;0.314;2022-12-18T02:28:49;100499.42;;;-3.48;100.00
64628;BME280;59036;50.960;0.314;2022-12-18T02:31:21;100502.09;;;-3.40;100.00
64628;BME280;59036;50.960;0.314;2022-12-18T02:33:51;100500.89;;;-3.16;100.00
64628;BME280;59036;50.960;0.314;2022-12-18T02:36:21;100499.84;;;-3.28;100.00
64628;BME280;59036;50.960;0.314;2022-12-18T02:38:51;100495.97;;;-3.41;100.00
64628;BME280;59036;50.960;0.314;2022-12-18T02:41:19;100497.05;;;-3.41;100.00
64628;BME280;59036;50.960;0.314;2022-12-18T02:43:52;100500.93;;;-3.25;100.00
64628;BME280;59036;50.960;0.314;2022-12-18T02:46:27;100491.74;;;-3.30;100.00
64628;BME280;59036;50.960;0.314;2022-12-18T02:49:05;100488.27;;;-3.42;100.00
64628;BME280;59036;50.960;0.314;2022-12-18T02:51:37;100487.14;;;-3.39;100.00
64628;BME280;59036;50.960;0.314;2022-12-18T02:54:10;100490.19;;;-3.29;100.00
64628;BME280;59036;50.960;0.314;2022-12-18T02:56:45;100485.95;;;-3.37;100.00
64628;BME280;59036;50.960;0.314;2022-12-18T02:59:16;100488.44;;;-3.17;100.00
64628;BME280;59036;50.960;0.314;2022-12-18T03:01:51;100490.27;;;-3.17;100.00
64628;BME280;59036;50.960;0.314;2022-12-18T03:04:22;100489.15;;;-3.52;100.00
64628;BME280;59036;50.960;0.314;2022-12-18T03:06:55;100489.62;;;-3.28;100.00
64628;BME280;59036;50.960;0.314;2022-12-18T03:09:29;100480.20;;;-3.09;100.00
64628;BME280;59036;50.960;0.314;2022-12-18T03:12:04;100478.69;;;-3.47;100.00
64628;BME280;59036;50.960;0.314;2022-12-18T03:14:34;100469.52;;;-2.86;100.00
64628;BME280;59036;50.960;0.314;2022-12-18T03:17:06;100466.98;;;-3.18;100.00
64628;BME280;59036;50.960;0.314;2022-12-18T03:19:41;100459.65;;;-3.05;100.00
64628;BME280;59036;50.960;0.314;2022-12-18T03:22:10;100465.19;;;-3.19;100.00
64628;BME280;59036;50.960;0.314;2022-12-18T03:24:37;100455.19;;;-3.26;100.00
64628;BME280;59036;50.960;0.314;2022-12-18T03:27:07;100455.68;;;-3.25;100.00
64628;BME280;59036;50.960;0.314;2022-12-18T03:29:38;100454.03;;;-3.17;100.00
64628;BME280;59036;50.960;0.314;2022-12-18T03:32:11;100446.83;;;-3.11;100.00
64628;BME280;59036;50.960;0.314;2022-12-18T03:34:42;100443.28;;;-3.35;100.00
64628;BME280;59036;50.960;0.314;2022-12-18T03:37:13;100436.94;;;-3.07;100.00
64628;BME280;59036;50.960;0.314;2022-12-18T03:39:41;100431.86;;;-3.18;100.00
64628;BME280;59036;50.960;0.314;2022-12-18T03:42:12;100444.09;;;-3.50;100.00
64628;BME280;59036;50.960;0.314;2022-12-18T03:44:47;100442.45;;;-3.32;100.00
64628;BME280;59036;50.960;0.314;2022-12-18T03:47:25;100439.59;;;-3.42;100.00
64628;BME280;59036;50.960;0.314;2022-12-18T03:49:57;100434.54;;;-3.10;100.00
64628;BME280;59036;50.960;0.314;2022-12-18T03:52:31;100428.96;;;-3.21;100.00
64628;BME280;59036;50.960;0.314;2022-12-18T03:55:03;100425.18;;;-3.20;100.00
64628;BME280;59036;50.960;0.314;2022-12-18T03:57:32;100426.14;;;-3.39;100.00
64628;BME280;59036;50.960;0.314;2022-12-18T04:00:04;100426.57;;;-3.46;100.00
64628;BME280;59036;50.960;0.314;2022-12-18T04:02:32;100425.44;;;-3.23;100.00
64628;BME280;59036;50.960;0.314;2022-12-18T04:05:03;100425.10;;;-3.11;100.00
64628;BME280;59036;50.960;0.314;2022-12-18T04:07:32;100434.12;;;-2.96;100.00
64628;BME280;59036;50.960;0.314;2022-12-18T04:10:02;100427.68;;;-3.18;100.00
64628;BME280;59036;50.960;0.314;2022-12-18T04:12:30;100424.60;;;-3.16;100.00
64628;BME280;59036;50.960;0.314;2022-12-18T04:14:57;100417.05;;;-3.37;100.00
64628;BME280;59036;50.960;0.314;2022-12-18T04:17:24;100411.35;;;-3.36;100.00
64628;BME280;59036;50.960;0.314;2022-12-18T04:19:52;100411.18;;;-3.47;100.00
64628;BME280;59036;50.960;0.314;2022-12-18T04:22:19;100416.00;;;-3.43;100.00
64628;BME280;59036;50.960;0.314;2022-12-18T04:24:46;100411.23;;;-3.10;100.00
64628;BME280;59036;50.960;0.314;2022-12-18T04:27:14;100408.40;;;-3.40;100.00
64628;BME280;59036;50.960;0.314;2022-12-18T04:29:40;100405.53;;;-3.16;100.00
64628;BME280;59036;50.960;0.314;2022-12-18T04:32:07;100404.83;;;-3.21;100.00
64628;BME280;59036;50.960;0.314;2022-12-18T04:34:34;100401.04;;;-3.12;100.00
64628;BME280;59036;50.960;0.314;2022-12-18T04:37:01;100403.47;;;-3.37;100.00
64628;BME280;59036;50.960;0.314;2022-12-18T04:39:28;100403.24;;;-3.30;100.00
64628;BME280;59036;50.960;0.314;2022-12-18T04:41:55;100404.69;;;-3.20;100.00
64628;BME280;59036;50.960;0.314;2022-12-18T04:44:22;100407.19;;;-3.32;100.00
64628;BME280;59036;50.960;0.314;2022-12-18T04:46:50;100414.10;;;-3.14;100.00
64628;BME280;59036;50.960;0.314;2022-12-18T04:49:17;100411.71;;;-3.22;100.00
64628;BME280;59036;50.960;0.314;2022-12-18T04:51:44;100406.30;;;-3.13;100.00
64628;BME280;59036;50.960;0.314;2022-12-18T04:54:12;100397.32;;;-2.89;100.00
64628;BME280;59036;50.960;0.314;2022-12-18T04:56:39;100390.86;;;-3.26;100.00
64628;BME280;59036;50.960;0.314;2022-12-18T04:59:06;100386.09;;;-3.03;100.00
64628;BME280;59036;50.960;0.314;2022-12-18T05:01:33;100379.31;;;-3.22;100.00
64628;BME280;59036;50.960;0.314;2022-12-18T05:04:00;100373.23;;;-3.79;100.00
64628;BME280;59036;50.960;0.314;2022-12-18T05:06:28;100368.69;;;-3.28;100.00
64628;BME280;59036;50.960;0.314;2022-12-18T05:08:55;100365.37;;;-3.32;100.00
64628;BME280;59036;50.960;0.314;2022-12-18T05:11:22;100363.67;;;-3.75;100.00
64628;BME280;59036;50.960;0.314;2022-12-18T05:13:50;100364.34;;;-3.28;100.00
64628;BME280;59036;50.960;0.314;2022-12-18T05:16:17;100364.41;;;-3.04;100.00
64628;BME280;59036;50.960;0.314;2022-12-18T05:18:44;100365.05;;;-3.37;100.00
64628;BME280;59036;50.960;0.314;2022-12-18T05:21:11;100364.78;;;-3.06;100.00
64628;BME280;59036;50.960;0.314;2022-12-18T05:23:38;100370.47;;;-3.37;100.00
64628;BME280;59036;50.960;0.314;2022-12-18T05:26:06;100366.50;;;-3.46;100.00
64628;BME280;59036;50.960;0.314;2022-12-18T05:28:35;100360.75;;;-3.38;100.00
64628;BME280;59036;50.960;0.314;2022-12-18T05:31:04;100357.37;;;-3.48;100.00
64628;BME280;59036;50.960;0.314;2022-12-18T05:33:33;100347.90;;;-3.52;100.00
64628;BME280;59036;50.960;0.314;2022-12-18T05:36:01;100338.97;;;-3.46;100.00
64628;BME280;59036;50.960;0.314;2022-12-18T05:38:30;100335.83;;;-3.56;100.00
64628;BME280;59036;50.960;0.314;2022-12-18T05:40:59;100333.06;;;-3.39;100.00
64628;BME280;59036;50.960;0.314;2022-12-18T05:43:27;100327.79;;;-3.62;100.00
64628;BME280;59036;50.960;0.314;2022-12-18T05:45:54;100326.54;;;-3.62;100.00
64628;BME280;59036;50.960;0.314;2022-12-18T05:48:22;100323.99;;;-3.50;100.00
64628;BME280;59036;50.960;0.314;2022-12-18T05:50:50;100322.54;;;-3.61;100.00
64628;BME280;59036;50.960;0.314;2022-12-18T05:53:19;100323.02;;;-3.43;100.00
64628;BME280;59036;50.960;0.314;2022-12-18T05:55:46;100327.33;;;-3.42;100.00
64628;BME280;59036;50.960;0.314;2022-12-18T05:58:14;100316.02;;;-3.57;100.00
64628;BME280;59036;50.960;0.314;2022-12-18T06:00:43;100316.50;;;-3.54;100.00
64628;BME280;59036;50.960;0.314;2022-12-18T06:03:12;100315.68;;;-3.16;100.00
64628;BME280;59036;50.960;0.314;2022-12-18T06:05:41;100310.62;;;-3.27;100.00
64628;BME280;59036;50.960;0.314;2022-12-18T06:08:09;100307.69;;;-3.61;100.00
64628;BME280;59036;50.960;0.314;2022-12-18T06:10:36;100306.35;;;-3.50;100.00
64628;BME280;59036;50.960;0.314;2022-12-18T06:13:05;100305.23;;;-3.16;100.00
64628;BME280;59036;50.960;0.314;2022-12-18T06:15:35;100291.60;;;-3.17;100.00
64628;BME280;59036;50.960;0.314;2022-12-18T06:18:02;100293.59;;;-3.22;100.00
64628;BME280;59036;50.960;0.314;2022-12-18T06:20:30;100291.21;;;-3.26;100.00
64628;BME280;59036;50.960;0.314;2022-12-18T06:22:57;100285.51;;;-3.16;100.00
64628;BME280;59036;50.960;0.314;2022-12-18T06:25:24;100281.28;;;-3.26;100.00
64628;BME280;59036;50.960;0.314;2022-12-18T06:27:52;100271.35;;;-3.42;100.00
64628;BME280;59036;50.960;0.314;2022-12-18T06:30:19;100270.69;;;-3.31;100.00
64628;BME280;59036;50.960;0.314;2022-12-18T06:32:48;100262.37;;;-3.10;100.00
64628;BME280;59036;50.960;0.314;2022-12-18T06:35:16;100252.70;;;-3.44;100.00
64628;BME280;59036;50.960;0.314;2022-12-18T06:37:43;100245.05;;;-3.41;100.00
64628;BME280;59036;50.960;0.314;2022-12-18T06:40:10;100241.62;;;-3.22;100.00
64628;BME280;59036;50.960;0.314;2022-12-18T06:42:38;100238.89;;;-3.19;100.00
64628;BME280;59036;50.960;0.314;2022-12-18T06:45:05;100225.71;;;-3.43;100.00
64628;BME280;59036;50.960;0.314;2022-12-18T06:47:33;100231.10;;;-3.06;100.00
64628;BME280;59036;50.960;0.314;2022-12-18T06:50:00;100223.27;;;-2.82;100.00
64628;BME280;59036;50.960;0.314;2022-12-18T06:52:28;100217.01;;;-3.20;100.00
64628;BME280;59036;50.960;0.314;2022-12-18T06:54:54;100219.54;;;-3.12;100.00
64628;BME280;59036;50.960;0.314;2022-12-18T06:57:22;100218.68;;;-2.86;100.00
64628;BME280;59036;50.960;0.314;2022-12-18T06:59:49;100226.49;;;-3.15;100.00
64628;BME280;59036;50.960;0.314;2022-12-18T07:02:16;100234.17;;;-3.15;100.00
64628;BME280;59036;50.960;0.314;2022-12-18T07:04:43;100233.62;;;-2.90;100.00
64628;BME280;59036;50.960;0.314;2022-12-18T07:07:11;100228.91;;;-2.76;100.00
64628;BME280;59036;50.960;0.314;2022-12-18T07:09:38;100218.87;;;-2.84;100.00
64628;BME280;59036;50.960;0.314;2022-12-18T07:12:05;100212.61;;;-2.49;100.00
64628;BME280;59036;50.960;0.314;2022-12-18T07:14:32;100205.22;;;-2.85;100.00
64628;BME280;59036;50.960;0.314;2022-12-18T07:17:00;100199.59;;;-2.82;100.00
64628;BME280;59036;50.960;0.314;2022-12-18T07:19:27;100203.16;;;-2.70;100.00
64628;BME280;59036;50.960;0.314;2022-12-18T07:21:54;100193.25;;;-2.71;100.00
64628;BME280;59036;50.960;0.314;2022-12-18T07:24:21;100200.78;;;-2.54;100.00
64628;BME280;59036;50.960;0.314;2022-12-18T07:26:48;100198.12;;;-2.77;100.00
64628;BME280;59036;50.960;0.314;2022-12-18T07:29:15;100187.85;;;-2.79;100.00
64628;BME280;59036;50.960;0.314;2022-12-18T07:31:42;100184.69;;;-2.77;100.00
64628;BME280;59036;50.960;0.314;2022-12-18T07:34:10;100181.94;;;-2.58;100.00
64628;BME280;59036;50.960;0.314;2022-12-18T07:36:38;100181.69;;;-2.80;100.00
64628;BME280;59036;50.960;0.314;2022-12-18T07:39:05;100177.28;;;-2.64;100.00
64628;BME280;59036;50.960;0.314;2022-12-18T07:41:33;100171.78;;;-2.44;100.00
64628;BME280;59036;50.960;0.314;2022-12-18T07:44:00;100173.94;;;-2.52;100.00
64628;BME280;59036;50.960;0.314;2022-12-18T07:46:27;100186.43;;;-2.74;100.00
64628;BME280;59036;50.960;0.314;2022-12-18T07:48:54;100187.35;;;-2.49;100.00
64628;BME280;59036;50.960;0.314;2022-12-18T07:51:21;100181.97;;;-2.46;100.00
64628;BME280;59036;50.960;0.314;2022-12-18T07:53:48;100185.05;;;-2.43;100.00
64628;BME280;59036;50.960;0.314;2022-12-18T07:56:15;100192.34;;;-2.51;100.00
64628;BME280;59036;50.960;0.314;2022-12-18T07:58:43;100178.82;;;-2.18;100.00
64628;BME280;59036;50.960;0.314;2022-12-18T08:01:11;100187.05;;;-2.29;100.00
64628;BME280;59036;50.960;0.314;2022-12-18T08:03:40;100191.29;;;-2.36;100.00
64628;BME280;59036;50.960;0.314;2022-12-18T08:06:09;100183.75;;;-2.36;100.00
64628;BME280;59036;50.960;0.314;2022-12-18T08:08:36;100180.49;;;-2.19;100.00
64628;BME280;59036;50.960;0.314;2022-12-18T08:11:04;100169.08;;;-2.02;100.00
64628;BME280;59036;50.960;0.314;2022-12-18T08:13:31;100168.14;;;-2.27;100.00
64628;BME280;59036;50.960;0.314;2022-12-18T08:16:00;100158.50;;;-2.08;100.00
64628;BME280;59036;50.960;0.314;2022-12-18T08:18:28;100145.25;;;-2.15;100.00
64628;BME280;59036;50.960;0.314;2022-12-18T08:20:56;100148.96;;;-2.07;100.00
64628;BME280;59036;50.960;0.314;2022-12-18T08:23:23;100144.56;;;-2.16;100.00
64628;BME280;59036;50.960;0.314;2022-12-18T08:25:50;100156.79;;;-1.93;100.00
64628;BME280;59036;50.960;0.314;2022-12-18T08:28:18;100162.11;;;-2.01;100.00
64628;BME280;59036;50.960;0.314;2022-12-18T08:30:45;100164.64;;;-1.98;100.00
64628;BME280;59036;50.960;0.314;2022-12-18T08:33:12;100160.30;;;-1.90;100.00
64628;BME280;59036;50.960;0.314;2022-12-18T08:35:39;100154.29;;;-1.86;100.00
64628;BME280;59036;50.960;0.314;2022-12-18T08:38:05;100162.49;;;-2.01;100.00
64628;BME280;59036;50.960;0.314;2022-12-18T08:40:33;100141.28;;;-2.12;100.00
64628;BME280;59036;50.960;0.314;2022-12-18T08:43:00;100151.92;;;-2.03;100.00
64628;BME280;59036;50.960;0.314;2022-12-18T08:45:28;100153.14;;;-1.93;100.00
64628;BME280;59036;50.960;0.314;2022-12-18T08:47:55;100151.60;;;-1.98;100.00
64628;BME280;59036;50.960;0.314;2022-12-18T08:50:21;100154.57;;;-2.09;100.00
64628;BME280;59036;50.960;0.314;2022-12-18T08:52:49;100157.22;;;-1.85;100.00
64628;BME280;59036;50.960;0.314;2022-12-18T08:55:16;100151.66;;;-2.08;100.00
64628;BME280;59036;50.960;0.314;2022-12-18T08:57:43;100153.05;;;-1.95;100.00
64628;BME280;59036;50.960;0.314;2022-12-18T09:00:11;100155.33;;;-2.00;100.00
64628;BME280;59036;50.960;0.314;2022-12-18T09:02:39;100168.15;;;-1.96;100.00
64628;BME280;59036;50.960;0.314;2022-12-18T09:05:06;100150.25;;;-1.99;100.00
64628;BME280;59036;50.960;0.314;2022-12-18T09:07:33;100142.10;;;-1.98;100.00
64628;BME280;59036;50.960;0.314;2022-12-18T09:09:59;100151.95;;;-2.13;100.00
64628;BME280;59036;50.960;0.314;2022-12-18T09:12:26;100157.86;;;-1.70;100.00
64628;BME280;59036;50.960;0.314;2022-12-18T09:14:54;100145.81;;;-2.23;100.00
64628;BME280;59036;50.960;0.314;2022-12-18T09:17:21;100142.24;;;-1.98;100.00
64628;BME280;59036;50.960;0.314;2022-12-18T09:19:48;100146.38;;;-1.97;100.00
64628;BME280;59036;50.960;0.314;2022-12-18T09:22:15;100143.33;;;-2.32;100.00
64628;BME280;59036;50.960;0.314;2022-12-18T09:24:42;100138.56;;;-2.22;100.00
64628;BME280;59036;50.960;0.314;2022-12-18T09:27:10;100148.56;;;-2.24;100.00
64628;BME280;59036;50.960;0.314;2022-12-18T09:29:37;100157.68;;;-2.09;100.00
64628;BME280;59036;50.960;0.314;2022-12-18T09:32:04;100174.69;;;-2.00;100.00
64628;BME280;59036;50.960;0.314;2022-12-18T09:34:32;100167.58;;;-1.81;100.00
64628;BME280;59036;50.960;0.314;2022-12-18T09:36:59;100161.45;;;-1.58;100.00
64628;BME280;59036;50.960;0.314;2022-12-18T09:39:27;100160.81;;;-1.53;100.00
64628;BME280;59036;50.960;0.314;2022-12-18T09:41:56;100156.50;;;-1.79;100.00
64628;BME280;59036;50.960;0.314;2022-12-18T09:44:27;100148.52;;;-1.89;100.00
64628;BME280;59036;50.960;0.314;2022-12-18T09:47:13;100155.71;;;-1.69;100.00
64628;BME280;59036;50.960;0.314;2022-12-18T09:49:43;100157.56;;;-1.73;100.00
64628;BME280;59036;50.960;0.314;2022-12-18T09:52:17;100153.86;;;-1.91;100.00
64628;BME280;59036;50.960;0.314;2022-12-18T09:54:51;100151.20;;;-1.91;100.00
64628;BME280;59036;50.960;0.314;2022-12-18T09:57:23;100157.98;;;-1.90;100.00
64628;BME280;59036;50.960;0.314;2022-12-18T09:59:55;100163.91;;;-1.74;100.00
64628;BME280;59036;50.960;0.314;2022-12-18T10:02:25;100160.84;;;-1.85;100.00
64628;BME280;59036;50.960;0.314;2022-12-18T10:05:04;100158.39;;;-2.04;100.00
64628;BME280;59036;50.960;0.314;2022-12-18T10:07:39;100166.10;;;-1.84;100.00
64628;BME280;59036;50.960;0.314;2022-12-18T10:10:18;100166.05;;;-1.81;100.00
64628;BME280;59036;50.960;0.314;2022-12-18T10:12:56;100167.32;;;-1.68;100.00
64628;BME280;59036;50.960;0.314;2022-12-18T10:15:33;100164.00;;;-1.73;100.00
64628;BME280;59036;50.960;0.314;2022-12-18T10:18:12;100171.13;;;-1.82;100.00
64628;BME280;59036;50.960;0.314;2022-12-18T10:20:49;100171.29;;;-1.37;100.00
64628;BME280;59036;50.960;0.314;2022-12-18T10:23:22;100172.29;;;-1.62;100.00
64628;BME280;59036;50.960;0.314;2022-12-18T10:25:55;100173.34;;;-1.44;100.00
64628;BME280;59036;50.960;0.314;2022-12-18T10:28:27;100172.82;;;-1.20;100.00
64628;BME280;59036;50.960;0.314;2022-12-18T10:30:56;100170.42;;;-1.33;100.00
64628;BME280;59036;50.960;0.314;2022-12-18T10:33:28;100168.15;;;-1.08;100.00
64628;BME280;59036;50.960;0.314;2022-12-18T10:35:55;100165.11;;;-1.12;100.00
64628;BME280;59036;50.960;0.314;2022-12-18T10:38:25;100159.60;;;-1.08;100.00
64628;BME280;59036;50.960;0.314;2022-12-18T10:40:55;100155.67;;;-1.37;100.00
64628;BME280;59036;50.960;0.314;2022-12-18T10:43:25;100155.66;;;-0.99;100.00
64628;BME280;59036;50.960;0.314;2022-12-18T10:46:25;100148.71;;;-1.18;100.00
64628;BME280;59036;50.960;0.314;2022-12-18T10:48:54;100137.50;;;-1.31;100.00
64628;BME280;59036;50.960;0.314;2022-12-18T10:51:24;100132.17;;;-1.44;100.00
64628;BME280;59036;50.960;0.314;2022-12-18T10:53:54;100131.31;;;-1.19;100.00
64628;BME280;59036;50.960;0.314;2022-12-18T10:56:24;100124.00;;;-0.85;100.00
64628;BME280;59036;50.960;0.314;2022-12-18T10:58:59;100117.78;;;-1.14;100.00
64628;BME280;59036;50.960;0.314;2022-12-18T11:01:26;100131.33;;;-0.93;100.00
64628;BME280;59036;50.960;0.314;2022-12-18T11:04:08;100129.73;;;-1.18;100.00
64628;BME280;59036;50.960;0.314;2022-12-18T11:06:53;100124.46;;;-1.17;100.00
64628;BME280;59036;50.960;0.314;2022-12-18T11:09:22;100119.32;;;-1.08;100.00
64628;BME280;59036;50.960;0.314;2022-12-18T11:11:51;100122.67;;;-1.13;100.00
64628;BME280;59036;50.960;0.314;2022-12-18T11:14:22;100109.21;;;-1.36;100.00
64628;BME280;59036;50.960;0.314;2022-12-18T11:16:51;100110.19;;;-1.31;100.00
64628;BME280;59036;50.960;0.314;2022-12-18T11:19:28;100097.88;;;-1.02;100.00
64628;BME280;59036;50.960;0.314;2022-12-18T11:21:56;100097.67;;;-1.32;100.00
64628;BME280;59036;50.960;0.314;2022-12-18T11:24:27;100089.05;;;-1.10;100.00
64628;BME280;59036;50.960;0.314;2022-12-18T11:26:55;100088.95;;;-0.90;100.00
64628;BME280;59036;50.960;0.314;2022-12-18T11:29:27;100091.77;;;-0.79;100.00
64628;BME280;59036;50.960;0.314;2022-12-18T11:32:35;100089.95;;;-0.82;100.00
64628;BME280;59036;50.960;0.314;2022-12-18T11:35:12;100082.90;;;-0.73;100.00
64628;BME280;59036;50.960;0.314;2022-12-18T11:37:45;100081.40;;;-1.00;100.00
64628;BME280;59036;50.960;0.314;2022-12-18T11:40:16;100074.72;;;-1.46;100.00
64628;BME280;59036;50.960;0.314;2022-12-18T11:42:48;100071.02;;;-0.94;100.00
64628;BME280;59036;50.960;0.314;2022-12-18T11:45:25;100065.57;;;-0.98;100.00
64628;BME280;59036;50.960;0.314;2022-12-18T11:47:58;100062.64;;;-1.14;100.00
64628;BME280;59036;50.960;0.314;2022-12-18T11:50:32;100063.29;;;-1.26;100.00
64628;BME280;59036;50.960;0.314;2022-12-18T11:53:01;100066.18;;;-1.16;100.00
64628;BME280;59036;50.960;0.314;2022-12-18T11:55:34;100074.53;;;-1.20;100.00
64628;BME280;59036;50.960;0.314;2022-12-18T11:58:10;100071.63;;;-1.29;100.00
64628;BME280;59036;50.960;0.314;2022-12-18T12:00:46;100072.72;;;-1.43;100.00
64628;BME280;59036;50.960;0.314;2022-12-18T12:03:24;100064.97;;;-1.24;100.00
64628;BME280;59036;50.960;0.314;2022-12-18T12:06:03;100060.89;;;-1.57;100.00
64628;BME280;59036;50.960;0.314;2022-12-18T12:08:42;100064.22;;;-1.22;100.00
64628;BME280;59036;50.960;0.314;2022-12-18T12:11:19;100063.83;;;-1.28;100.00
64628;BME280;59036;50.960;0.314;2022-12-18T12:14:10;100049.53;;;-1.54;100.00
64628;BME280;59036;50.960;0.314;2022-12-18T12:16:50;100044.71;;;-1.67;100.00
64628;BME280;59036;50.960;0.314;2022-12-18T12:19:28;100024.97;;;-1.31;100.00
64628;BME280;59036;50.960;0.314;2022-12-18T12:22:05;100018.24;;;-1.38;100.00
64628;BME280;59036;50.960;0.314;2022-12-18T12:24:44;100016.67;;;-1.46;100.00
64628;BME280;59036;50.960;0.314;2022-12-18T12:27:23;100005.51;;;-1.33;100.00
64628;BME280;59036;50.960;0.314;2022-12-18T12:30:03;100004.57;;;-1.80;100.00
64628;BME280;59036;50.960;0.314;2022-12-18T12:32:43;100006.37;;;-1.50;100.00
64628;BME280;59036;50.960;0.314;2022-12-18T12:35:24;99992.81;;;-1.53;100.00
64628;BME280;59036;50.960;0.314;2022-12-18T12:38:05;99986.89;;;-1.23;100.00
64628;BME280;59036;50.960;0.314;2022-12-18T12:40:36;99985.02;;;-1.22;100.00
64628;BME280;59036;50.960;0.314;2022-12-18T12:43:19;99982.45;;;-1.53;100.00
64628;BME280;59036;50.960;0.314;2022-12-18T12:45:52;99980.68;;;-1.53;100.00
64628;BME280;59036;50.960;0.314;2022-12-18T12:48:32;99982.61;;;-1.45;100.00
64628;BME280;59036;50.960;0.314;2022-12-18T12:51:07;99973.22;;;-1.55;100.00
64628;BME280;59036;50.960;0.314;2022-12-18T12:53:37;99981.86;;;-1.64;100.00
64628;BME280;59036;50.960;0.314;2022-12-18T12:56:05;99977.37;;;-1.38;100.00